Sedna Desgagnes — CYQE — position and weather

sailwx.info

Track history (hours):
 
Tides and Currents Weather Stations Pressure Air Temp Water Temp Dewpoint Dewpoint Depression Visibility Wind Speed Wind Dir Waves Ship Positions

Sedna Desgagnes

Last reported at 2017-Oct-26 20:18 UTC. Time now 2017-Nov-22 18:14 UTC.
Position N 45°32' W 073°32'.
Warning: this ship's position is 26 days out of date.

Length 139 m; draft 5.7 m.

Type: Ship. MMSI: 316015251.

Date/timePositionNaut miles runAvg speedWind from/ knotsBaromVisibWave heightAir tempDewpointWater temp
2017-Oct-26 20:18N 45°32' W 073°32'2 6.0
2017-Oct-26 19:58N 45°30' W 073°31'1 0.8
2017-Oct-26 19:18N 45°30' W 073°31'0 1.5
2017-Oct-26 18:58N 45°29' W 073°31'2 4.3
2017-Oct-26 18:30N 45°27' W 073°30'3 6.4
2017-Oct-26 18:00N 45°24' W 073°32'1 2.2
2017-Oct-26 17:30N 45°24' W 073°34'2 4.3
2017-Oct-26 17:00N 45°24' W 073°37'3 6.5
2017-Oct-26 16:30N 45°25' W 073°42'3 6.9
2017-Oct-26 16:00N 45°24' W 073°46'3 6.2
2017-Oct-26 15:30N 45°25' W 073°42'3 6.1
2017-Oct-26 15:00N 45°24' W 073°38'1 2.6
2017-Oct-26 14:30N 45°24' W 073°36'0 0.0
2017-Oct-26 14:00N 45°24' W 073°36'0 0.0
2017-Oct-26 13:25N 45°24' W 073°36'0 0.0
2017-Oct-26 12:43N 45°24' W 073°36'0 0.0
2017-Oct-26 12:07N 45°24' W 073°36'0 0.0
2017-Oct-26 11:55N 45°24' W 073°36'0 0.0
2017-Oct-26 11:25N 45°24' W 073°36'0 0.0
2017-Oct-26 10:49N 45°24' W 073°36'0 0.0
2017-Oct-26 10:25N 45°24' W 073°36'0 0.0
2017-Oct-26 09:55N 45°24' W 073°36'0 0.0
2017-Oct-26 09:19N 45°24' W 073°36'0 0.0
2017-Oct-26 08:55N 45°24' W 073°36'0 0.0
2017-Oct-26 08:25N 45°24' W 073°36'0 0.0
2017-Oct-26 07:55N 45°24' W 073°36'0 0.0
2017-Oct-26 07:25N 45°24' W 073°36'0 0.0
2017-Oct-26 06:55N 45°24' W 073°36'0 0.0
2017-Oct-26 06:25N 45°24' W 073°36'0 0.0
2017-Oct-26 05:55N 45°24' W 073°36'0 0.0
2017-Oct-26 05:25N 45°24' W 073°36'0 0.0
2017-Oct-26 04:55N 45°24' W 073°36'0 0.0
2017-Oct-26 04:19N 45°24' W 073°36'0 0.0
2017-Oct-26 03:55N 45°24' W 073°36'0 0.0
2017-Oct-26 03:25N 45°24' W 073°36'0 0.0
2017-Oct-26 02:55N 45°24' W 073°36'0 0.0
2017-Oct-26 02:19N 45°24' W 073°36'0 0.0
2017-Oct-26 01:55N 45°24' W 073°36'0 0.0
2017-Oct-26 01:25N 45°24' W 073°36'0 0.0
2017-Oct-26 00:55N 45°24' W 073°36'0 0.0
2017-Oct-26 00:25N 45°24' W 073°36'0 0.0
2017-Oct-25 23:55N 45°24' W 073°36'0 0.0
2017-Oct-25 23:25N 45°24' W 073°36'0 0.0
2017-Oct-25 22:55N 45°24' W 073°36'0 0.0
2017-Oct-25 22:25N 45°24' W 073°36'0 0.0
2017-Oct-25 21:55N 45°24' W 073°36'0 0.0
2017-Oct-25 21:25N 45°24' W 073°36'0 0.0
2017-Oct-25 20:55N 45°24' W 073°36'0 0.0
2017-Oct-25 20:25N 45°24' W 073°36'0 0.0
2017-Oct-25 19:55N 45°24' W 073°36'0 0.0
2017-Oct-25 19:25N 45°24' W 073°36'0 0.0
2017-Oct-25 18:49N 45°24' W 073°36'0 0.0
2017-Oct-25 18:29N 45°24' W 073°36'0 0.0
2017-Oct-25 17:53N 45°24' W 073°36'0 0.0
2017-Oct-25 17:26N 45°24' W 073°36'0 0.0
2017-Oct-25 16:58N 45°24' W 073°36'0 0.0
2017-Oct-25 16:25N 45°24' W 073°36'0 0.0
2017-Oct-25 15:55N 45°24' W 073°36'0 0.0
2017-Oct-25 15:25N 45°24' W 073°36'0 0.0
2017-Oct-25 14:55N 45°24' W 073°36'0 0.0
2017-Oct-25 14:25N 45°24' W 073°36'0 0.0
2017-Oct-25 13:55N 45°24' W 073°36'0 0.0
2017-Oct-25 13:25N 45°24' W 073°36'0 0.0
2017-Oct-25 12:55N 45°24' W 073°36'0 0.0
2017-Oct-25 12:25N 45°24' W 073°36'0 0.0
2017-Oct-25 11:55N 45°24' W 073°36'0 0.0
2017-Oct-25 11:25N 45°24' W 073°36'0 0.0
2017-Oct-25 10:55N 45°24' W 073°36'0 0.0
2017-Oct-25 10:25N 45°24' W 073°36'0 0.0
2017-Oct-25 09:55N 45°24' W 073°36'0 0.0
2017-Oct-25 09:25N 45°24' W 073°36'0 0.0
2017-Oct-25 08:55N 45°24' W 073°36'0 0.0
2017-Oct-25 08:25N 45°24' W 073°36'0 0.0
2017-Oct-25 07:55N 45°24' W 073°36'0 0.0
2017-Oct-25 07:25N 45°24' W 073°36'0 0.0
2017-Oct-25 06:49N 45°24' W 073°36'0 0.0
2017-Oct-25 06:19N 45°24' W 073°36'0 0.0
2017-Oct-25 05:55N 45°24' W 073°36'0 0.0
2017-Oct-25 05:25N 45°24' W 073°36'0 0.0
2017-Oct-25 04:55N 45°24' W 073°36'0 0.0
2017-Oct-25 04:25N 45°24' W 073°36'0 0.0
2017-Oct-25 03:55N 45°24' W 073°36'0 0.0
2017-Oct-25 03:25N 45°24' W 073°36'0 0.0
2017-Oct-25 02:55N 45°24' W 073°36'0 0.0
2017-Oct-25 02:25N 45°24' W 073°36'0 0.0
2017-Oct-25 01:55N 45°24' W 073°36'0 0.0
2017-Oct-25 01:30N 45°24' W 073°36'2 0.9
2017-Oct-24 23:36N 45°24' W 073°33'3 4.2
2017-Oct-24 22:47N 45°27' W 073°30'2 7.1
2017-Oct-24 22:30N 45°29' W 073°31'1 1.4
2017-Oct-24 21:58N 45°30' W 073°31'0 0.3
2017-Oct-24 21:30N 45°30' W 073°31'3 0.8
2017-Oct-24 17:20N 45°33' W 073°32'0 0.0
2017-Oct-24 16:56N 45°33' W 073°32'0 0.0
2017-Oct-24 15:26N 45°33' W 073°32'0 0.0
2017-Oct-24 14:56N 45°33' W 073°32'0 0.0
2017-Oct-24 13:02N 45°33' W 073°32'0 0.0
2017-Oct-24 12:44N 45°33' W 073°32'0 0.0
2017-Oct-24 12:14N 45°33' W 073°32'0 0.0
2017-Oct-24 11:50N 45°33' W 073°32'0 0.0
2017-Oct-24 11:29N 45°33' W 073°32'  
2017-Oct-18 00:44N 51°04' W 057°38'  
Track history (hours):
 
Tides and Currents Weather Stations Pressure Air Temp Water Temp Dewpoint Dewpoint Depression Visibility Wind Speed Wind Dir Waves Ship Positions

Sedna Desgagnes

Last reported at 2017-Oct-26 20:18 UTC. Time now 2017-Nov-22 18:14 UTC.
Position N 45°32' W 073°32'.
Warning: this ship's position is 26 days out of date.

Length 139 m; draft 5.7 m.

Type: Ship. MMSI: 316015251.

Date/timePositionNaut miles runAvg speedWind from/ knotsBaromVisibWave heightAir tempDewpointWater temp
2017-Oct-26 20:18N 45°32' W 073°32'2 6.0
2017-Oct-26 19:58N 45°30' W 073°31'1 0.8
2017-Oct-26 19:18N 45°30' W 073°31'0 1.5
2017-Oct-26 18:58N 45°29' W 073°31'2 4.3
2017-Oct-26 18:30N 45°27' W 073°30'3 6.4
2017-Oct-26 18:00N 45°24' W 073°32'1 2.2
2017-Oct-26 17:30N 45°24' W 073°34'2 4.3
2017-Oct-26 17:00N 45°24' W 073°37'3 6.5
2017-Oct-26 16:30N 45°25' W 073°42'3 6.9
2017-Oct-26 16:00N 45°24' W 073°46'3 6.2
2017-Oct-26 15:30N 45°25' W 073°42'3 6.1
2017-Oct-26 15:00N 45°24' W 073°38'1 2.6
2017-Oct-26 14:30N 45°24' W 073°36'0 0.0
2017-Oct-26 14:00N 45°24' W 073°36'0 0.0
2017-Oct-26 13:25N 45°24' W 073°36'0 0.0
2017-Oct-26 12:43N 45°24' W 073°36'0 0.0
2017-Oct-26 12:07N 45°24' W 073°36'0 0.0
2017-Oct-26 11:55N 45°24' W 073°36'0 0.0
2017-Oct-26 11:25N 45°24' W 073°36'0 0.0
2017-Oct-26 10:49N 45°24' W 073°36'0 0.0
2017-Oct-26 10:25N 45°24' W 073°36'0 0.0
2017-Oct-26 09:55N 45°24' W 073°36'0 0.0
2017-Oct-26 09:19N 45°24' W 073°36'0 0.0
2017-Oct-26 08:55N 45°24' W 073°36'0 0.0
2017-Oct-26 08:25N 45°24' W 073°36'0 0.0
2017-Oct-26 07:55N 45°24' W 073°36'0 0.0
2017-Oct-26 07:25N 45°24' W 073°36'0 0.0
2017-Oct-26 06:55N 45°24' W 073°36'0 0.0
2017-Oct-26 06:25N 45°24' W 073°36'0 0.0
2017-Oct-26 05:55N 45°24' W 073°36'0 0.0
2017-Oct-26 05:25N 45°24' W 073°36'0 0.0
2017-Oct-26 04:55N 45°24' W 073°36'0 0.0
2017-Oct-26 04:19N 45°24' W 073°36'0 0.0
2017-Oct-26 03:55N 45°24' W 073°36'0 0.0
2017-Oct-26 03:25N 45°24' W 073°36'0 0.0
2017-Oct-26 02:55N 45°24' W 073°36'0 0.0
2017-Oct-26 02:19N 45°24' W 073°36'0 0.0
2017-Oct-26 01:55N 45°24' W 073°36'0 0.0
2017-Oct-26 01:25N 45°24' W 073°36'0 0.0
2017-Oct-26 00:55N 45°24' W 073°36'0 0.0
2017-Oct-26 00:25N 45°24' W 073°36'0 0.0
2017-Oct-25 23:55N 45°24' W 073°36'0 0.0
2017-Oct-25 23:25N 45°24' W 073°36'0 0.0
2017-Oct-25 22:55N 45°24' W 073°36'0 0.0
2017-Oct-25 22:25N 45°24' W 073°36'0 0.0
2017-Oct-25 21:55N 45°24' W 073°36'0 0.0
2017-Oct-25 21:25N 45°24' W 073°36'0 0.0
2017-Oct-25 20:55N 45°24' W 073°36'0 0.0
2017-Oct-25 20:25N 45°24' W 073°36'0 0.0
2017-Oct-25 19:55N 45°24' W 073°36'0 0.0
2017-Oct-25 19:25N 45°24' W 073°36'0 0.0
2017-Oct-25 18:49N 45°24' W 073°36'0 0.0
2017-Oct-25 18:29N 45°24' W 073°36'0 0.0
2017-Oct-25 17:53N 45°24' W 073°36'0 0.0
2017-Oct-25 17:26N 45°24' W 073°36'0 0.0
2017-Oct-25 16:58N 45°24' W 073°36'0 0.0
2017-Oct-25 16:25N 45°24' W 073°36'0 0.0
2017-Oct-25 15:55N 45°24' W 073°36'0 0.0
2017-Oct-25 15:25N 45°24' W 073°36'0 0.0
2017-Oct-25 14:55N 45°24' W 073°36'0 0.0
2017-Oct-25 14:25N 45°24' W 073°36'0 0.0
2017-Oct-25 13:55N 45°24' W 073°36'0 0.0
2017-Oct-25 13:25N 45°24' W 073°36'0 0.0
2017-Oct-25 12:55N 45°24' W 073°36'0 0.0
2017-Oct-25 12:25N 45°24' W 073°36'0 0.0
2017-Oct-25 11:55N 45°24' W 073°36'0 0.0
2017-Oct-25 11:25N 45°24' W 073°36'0 0.0
2017-Oct-25 10:55N 45°24' W 073°36'0 0.0
2017-Oct-25 10:25N 45°24' W 073°36'0 0.0
2017-Oct-25 09:55N 45°24' W 073°36'0 0.0
2017-Oct-25 09:25N 45°24' W 073°36'0 0.0
2017-Oct-25 08:55N 45°24' W 073°36'0 0.0
2017-Oct-25 08:25N 45°24' W 073°36'0 0.0
2017-Oct-25 07:55N 45°24' W 073°36'0 0.0
2017-Oct-25 07:25N 45°24' W 073°36'0 0.0
2017-Oct-25 06:49N 45°24' W 073°36'0 0.0
2017-Oct-25 06:19N 45°24' W 073°36'0 0.0
2017-Oct-25 05:55N 45°24' W 073°36'0 0.0
2017-Oct-25 05:25N 45°24' W 073°36'0 0.0
2017-Oct-25 04:55N 45°24' W 073°36'0 0.0
2017-Oct-25 04:25N 45°24' W 073°36'0 0.0
2017-Oct-25 03:55N 45°24' W 073°36'0 0.0
2017-Oct-25 03:25N 45°24' W 073°36'0 0.0
2017-Oct-25 02:55N 45°24' W 073°36'0 0.0
2017-Oct-25 02:25N 45°24' W 073°36'0 0.0
2017-Oct-25 01:55N 45°24' W 073°36'0 0.0
2017-Oct-25 01:30N 45°24' W 073°36'2 0.9
2017-Oct-24 23:36N 45°24' W 073°33'3 4.2
2017-Oct-24 22:47N 45°27' W 073°30'2 7.1
2017-Oct-24 22:30N 45°29' W 073°31'1 1.4
2017-Oct-24 21:58N 45°30' W 073°31'0 0.3
2017-Oct-24 21:30N 45°30' W 073°31'3 0.8
2017-Oct-24 17:20N 45°33' W 073°32'0 0.0
2017-Oct-24 16:56N 45°33' W 073°32'0 0.0
2017-Oct-24 15:26N 45°33' W 073°32'0 0.0
2017-Oct-24 14:56N 45°33' W 073°32'0 0.0
2017-Oct-24 13:02N 45°33' W 073°32'0 0.0
2017-Oct-24 12:44N 45°33' W 073°32'0 0.0
2017-Oct-24 12:14N 45°33' W 073°32'0 0.0
2017-Oct-24 11:50N 45°33' W 073°32'0 0.0
2017-Oct-24 11:29N 45°33' W 073°32'  
2017-Oct-18 00:44N 51°04' W 057°38'  

Dump ship's entire track history